Ann Arbor Township, Michigan
Current Conditions -  °F | °C
As of 6:02 PM on Thursday 20 Nov 2014 (Local Time) from KARB Reporting Station
Overcast Overcast  
Wind Chill: 10°   Ceiling: 3100
Heat Index: 22°   Visibility: 9mi
Dew Point: 12°   Wind: 13mph
Humidity: 66%   Direction: 280°W
Pressure: 30.03"   Gusts: NA
Location:  42.3281°N, 83.7037°W
Report Text: KARB 202302Z 28011KT 9SM BKN031 OVC065 M06/M11 A3003 RMK AO2 SNE02 P0000 T10561111
Loading
Personal Weather Stations






























Interactive Weather Map New forecast layout! Learn more

10-Day Weather Forecast

Advertisements
Track Severe Weather on mobile